createdAt,value
2023-05-16T00:01:49.269Z,21.70
2023-05-16T00:04:17.789Z,21.70
2023-05-16T00:06:46.177Z,21.70
2023-05-16T00:09:14.481Z,21.70
2023-05-16T00:11:42.790Z,21.70
2023-05-16T00:14:11.782Z,21.70
2023-05-16T00:16:42.292Z,21.70
2023-05-16T00:19:11.472Z,21.60
2023-05-16T00:21:39.795Z,21.70
2023-05-16T00:24:08.828Z,21.90
2023-05-16T00:26:37.135Z,22.00
2023-05-16T00:29:05.470Z,22.00
2023-05-16T00:31:33.932Z,22.00
2023-05-16T00:34:03.710Z,22.10
2023-05-16T00:36:32.350Z,22.20
2023-05-16T00:39:01.308Z,22.20
2023-05-16T00:41:29.666Z,22.30
2023-05-16T00:43:58.003Z,22.40
2023-05-16T00:46:26.347Z,22.60
2023-05-16T00:48:54.703Z,22.60
2023-05-16T00:51:24.647Z,22.40
2023-05-16T00:53:54.925Z,22.10
2023-05-16T00:56:23.863Z,21.80
2023-05-16T00:58:52.313Z,21.60
2023-05-16T01:01:24.778Z,21.60
2023-05-16T01:03:55.533Z,21.70
2023-05-16T01:06:25.369Z,21.70
2023-05-16T01:08:54.590Z,21.70
2023-05-16T01:11:29.545Z,21.80
2023-05-16T01:14:07.549Z,21.70
2023-05-16T01:16:40.613Z,21.60
2023-05-16T01:19:22.479Z,21.70
2023-05-16T01:22:04.633Z,21.70
2023-05-16T01:24:36.142Z,21.60
2023-05-16T01:27:07.225Z,21.60
2023-05-16T01:29:35.744Z,21.50
2023-05-16T01:32:06.506Z,21.50
2023-05-16T01:34:35.484Z,21.40
2023-05-16T01:37:11.630Z,21.40
2023-05-16T01:39:45.576Z,21.10
2023-05-16T01:42:17.218Z,21.00
2023-05-16T01:44:50.392Z,21.00
2023-05-16T01:47:21.659Z,20.80
2023-05-16T01:49:58.653Z,20.80
2023-05-16T01:52:32.538Z,20.80
2023-05-16T01:55:04.116Z,20.70
2023-05-16T01:57:35.026Z,20.70
2023-05-16T02:00:03.611Z,20.80
2023-05-16T02:02:32.899Z,20.80
2023-05-16T02:05:06.545Z,20.70
2023-05-16T02:07:35.972Z,20.70
2023-05-16T02:10:04.958Z,20.70
2023-05-16T02:12:38.626Z,20.60
2023-05-16T02:15:07.945Z,20.60
2023-05-16T02:17:36.318Z,20.40
2023-05-16T02:20:07.356Z,20.40
2023-05-16T02:22:36.192Z,20.40
2023-05-16T02:25:05.119Z,20.40
2023-05-16T02:27:33.688Z,20.40
2023-05-16T02:30:03.772Z,20.50
2023-05-16T02:32:32.184Z,20.60
2023-05-16T02:35:00.650Z,20.60
2023-05-16T02:37:28.947Z,20.60
2023-05-16T02:39:58.527Z,20.60
2023-05-16T02:42:28.173Z,20.50
2023-05-16T02:44:56.533Z,20.40
2023-05-16T02:47:27.575Z,20.40
2023-05-16T02:49:56.503Z,20.40
2023-05-16T02:52:24.971Z,20.10
2023-05-16T02:57:24.698Z,19.70
2023-05-16T02:59:53.082Z,19.70
2023-05-16T03:02:21.538Z,19.70
2023-05-16T03:04:51.272Z,19.80
2023-05-16T03:07:19.650Z,19.70
2023-05-16T03:09:47.935Z,19.70
2023-05-16T03:12:16.283Z,19.50
2023-05-16T03:14:44.551Z,19.10
2023-05-16T03:17:12.900Z,19.10
2023-05-16T03:19:41.266Z,18.90
2023-05-16T03:22:11.012Z,18.60
2023-05-16T03:24:39.355Z,18.50
2023-05-16T03:27:08.179Z,18.40
2023-05-16T03:29:36.589Z,18.50
2023-05-16T03:32:06.202Z,18.40
2023-05-16T03:34:34.747Z,18.50
2023-05-16T03:37:03.064Z,18.50
2023-05-16T03:39:32.858Z,18.60
2023-05-16T03:42:01.194Z,18.50
2023-05-16T03:44:29.516Z,18.40
2023-05-16T03:46:57.803Z,18.20
2023-05-16T03:49:28.520Z,18.30
2023-05-16T03:51:57.583Z,18.30
2023-05-16T03:54:25.885Z,18.30
2023-05-16T03:56:55.675Z,18.20
2023-05-16T03:59:24.198Z,18.10
2023-05-16T04:01:52.528Z,18.10
2023-05-16T04:04:21.051Z,18.20
2023-05-16T04:06:49.284Z,18.20
2023-05-16T04:09:17.689Z,18.10
2023-05-16T04:11:46.079Z,18.00
2023-05-16T04:14:16.165Z,18.00
2023-05-16T04:16:44.610Z,18.00
2023-05-16T04:19:13.018Z,18.00
2023-05-16T04:21:41.503Z,18.10
2023-05-16T04:24:09.922Z,18.20
2023-05-16T04:26:38.479Z,18.30
2023-05-16T04:29:07.262Z,18.30
2023-05-16T04:31:37.739Z,18.30
2023-05-16T04:34:06.072Z,18.30
2023-05-16T04:36:35.608Z,18.30
2023-05-16T04:39:04.134Z,18.20
2023-05-16T04:41:32.752Z,18.10
2023-05-16T04:44:03.594Z,18.00
2023-05-16T04:46:32.199Z,18.00
2023-05-16T04:49:01.906Z,18.10
2023-05-16T04:51:31.860Z,18.10
2023-05-16T04:54:00.168Z,18.20
2023-05-16T04:56:28.626Z,18.10
2023-05-16T04:58:57.010Z,18.10
2023-05-16T05:01:25.341Z,17.80
2023-05-16T05:03:53.690Z,17.60
2023-05-16T05:06:23.538Z,17.60
2023-05-16T05:08:51.830Z,17.50
2023-05-16T05:11:20.370Z,17.40
2023-05-16T05:13:50.740Z,17.20
2023-05-16T05:16:20.483Z,17.10
2023-05-16T05:18:49.004Z,17.00
2023-05-16T05:21:18.564Z,17.00
2023-05-16T05:23:49.795Z,17.00
2023-05-16T05:26:18.667Z,17.00
2023-05-16T05:28:53.772Z,17.00
2023-05-16T05:31:30.122Z,17.10
2023-05-16T05:33:58.600Z,17.20
2023-05-16T05:36:26.982Z,17.30
2023-05-16T05:38:56.763Z,17.40
2023-05-16T05:41:25.233Z,17.40
2023-05-16T05:43:53.567Z,17.30
2023-05-16T05:46:21.946Z,17.20
2023-05-16T05:48:50.597Z,17.20
2023-05-16T05:51:19.273Z,17.30
2023-05-16T05:53:47.911Z,17.30
2023-05-16T05:56:17.642Z,17.40
2023-05-16T05:58:46.053Z,17.50
2023-05-16T06:01:14.746Z,17.50
2023-05-16T06:03:43.056Z,17.40
2023-05-16T06:06:11.457Z,17.40
2023-05-16T06:08:39.818Z,17.50
2023-05-16T06:11:08.311Z,17.60
2023-05-16T06:13:38.032Z,17.60
2023-05-16T06:16:08.790Z,17.70
2023-05-16T06:18:38.774Z,17.80
2023-05-16T06:21:07.498Z,17.90
2023-05-16T06:23:36.053Z,18.00
2023-05-16T06:26:04.757Z,18.10
2023-05-16T06:28:33.325Z,18.10
2023-05-16T06:31:03.095Z,18.10
2023-05-16T06:33:31.599Z,18.00
2023-05-16T06:35:59.948Z,17.90
2023-05-16T06:38:28.400Z,17.80
2023-05-16T06:40:56.716Z,17.60
2023-05-16T06:43:25.280Z,17.60
2023-05-16T06:45:53.648Z,17.60
2023-05-16T06:48:23.537Z,17.70
2023-05-16T06:50:52.246Z,17.80
2023-05-16T06:53:20.942Z,18.00
2023-05-16T06:55:49.319Z,18.10
2023-05-16T06:58:17.816Z,18.20
2023-05-16T07:00:46.708Z,18.20
2023-05-16T07:03:41.737Z,18.20
2023-05-16T07:06:11.619Z,18.10
2023-05-16T07:08:40.274Z,18.00
2023-05-16T07:11:08.806Z,18.10
2023-05-16T07:13:37.166Z,18.00
2023-05-16T07:16:07.946Z,18.10
2023-05-16T07:18:36.447Z,18.20
2023-05-16T07:21:06.343Z,18.40
2023-05-16T07:23:34.690Z,18.50
2023-05-16T07:26:03.525Z,18.70
2023-05-16T07:28:32.086Z,18.80
2023-05-16T07:31:03.292Z,18.80
2023-05-16T07:33:31.646Z,18.90
2023-05-16T07:36:12.204Z,19.00
2023-05-16T07:38:45.939Z,19.10
2023-05-16T07:41:14.666Z,19.30
2023-05-16T07:43:43.423Z,19.40
2023-05-16T07:46:12.194Z,19.60
2023-05-16T07:48:40.743Z,19.70
2023-05-16T07:51:09.148Z,19.70
2023-05-16T07:53:37.575Z,19.60
2023-05-16T07:56:08.784Z,19.60
2023-05-16T07:58:37.449Z,19.80
2023-05-16T08:01:05.934Z,19.80
2023-05-16T08:03:34.529Z,19.70
2023-05-16T08:06:03.084Z,19.70
2023-05-16T08:08:31.490Z,19.80
2023-05-16T08:10:59.823Z,20.00
2023-05-16T08:13:29.642Z,20.10
2023-05-16T08:15:58.099Z,20.10
2023-05-16T08:18:26.467Z,20.00
2023-05-16T08:20:54.756Z,20.20
2023-05-16T08:23:23.151Z,20.20
2023-05-16T08:25:51.627Z,20.30
2023-05-16T08:28:20.164Z,20.30
2023-05-16T08:30:50.138Z,20.30
2023-05-16T08:33:18.582Z,20.30
2023-05-16T08:35:49.642Z,20.30
2023-05-16T08:38:18.065Z,20.30
2023-05-16T08:40:46.863Z,20.50
2023-05-16T08:43:15.390Z,20.60
2023-05-16T08:45:43.993Z,20.70
2023-05-16T08:48:16.047Z,20.80
2023-05-16T08:50:44.462Z,21.10
2023-05-16T08:53:15.967Z,21.50
2023-05-16T08:55:45.495Z,21.70
2023-05-16T08:58:14.832Z,22.00
2023-05-16T09:00:43.536Z,22.40
2023-05-16T09:03:13.722Z,22.50
2023-05-16T09:05:42.542Z,22.80
2023-05-16T09:08:11.504Z,23.00
2023-05-16T09:10:40.752Z,22.90
2023-05-16T09:13:09.134Z,23.10
2023-05-16T09:15:37.525Z,23.30
2023-05-16T09:18:05.922Z,23.50
2023-05-16T09:20:35.866Z,23.60
2023-05-16T09:23:04.206Z,23.60
2023-05-16T09:25:33.094Z,23.50
2023-05-16T09:28:03.586Z,23.50
2023-05-16T09:30:34.292Z,23.40
2023-05-16T09:33:03.310Z,23.60
2023-05-16T09:38:05.780Z,23.40
2023-05-16T09:40:34.171Z,23.30
2023-05-16T09:43:07.008Z,23.40
2023-05-16T09:45:36.681Z,23.70
2023-05-16T09:48:06.952Z,24.10
2023-05-16T09:50:36.322Z,24.20
2023-05-16T09:53:06.734Z,23.90
2023-05-16T09:55:35.359Z,24.00
2023-05-16T09:58:03.795Z,24.10
2023-05-16T10:00:33.668Z,24.10
2023-05-16T10:03:05.832Z,24.20
2023-05-16T10:05:34.922Z,24.20
2023-05-16T10:08:06.363Z,24.00
2023-05-16T10:10:38.423Z,23.70
2023-05-16T10:13:08.958Z,23.50
2023-05-16T10:15:39.382Z,23.40
2023-05-16T10:18:13.182Z,23.40
2023-05-16T10:20:44.119Z,23.30
2023-05-16T10:23:18.865Z,23.20
2023-05-16T10:25:49.744Z,23.20
2023-05-16T10:28:18.570Z,23.00
2023-05-16T10:30:47.976Z,22.40
2023-05-16T10:33:18.290Z,21.70
2023-05-16T10:35:47.378Z,21.30
2023-05-16T10:38:19.912Z,20.70
2023-05-16T10:40:49.913Z,20.20
2023-05-16T10:43:26.808Z,20.00
2023-05-16T10:45:57.541Z,20.00
2023-05-16T10:48:33.521Z,20.00
2023-05-16T10:51:04.160Z,20.10
2023-05-16T10:53:35.645Z,20.00
2023-05-16T10:56:12.649Z,19.90
2023-05-16T10:58:49.124Z,19.60
2023-05-16T11:01:25.098Z,19.80
2023-05-16T11:04:17.390Z,20.20
2023-05-16T11:06:47.958Z,20.80
2023-05-16T11:09:23.568Z,21.20
2023-05-16T11:12:03.683Z,21.40
2023-05-16T11:14:39.209Z,21.60
2023-05-16T11:17:13.124Z,22.00
2023-05-16T11:19:43.780Z,22.30
2023-05-16T11:22:25.819Z,22.20
2023-05-16T11:24:58.498Z,22.40
2023-05-16T11:27:29.335Z,22.10
2023-05-16T11:30:03.702Z,21.90
2023-05-16T11:32:35.236Z,22.00
2023-05-16T11:35:04.261Z,22.00
2023-05-16T11:37:32.761Z,22.10
2023-05-16T11:40:04.325Z,21.90
2023-05-16T11:42:34.169Z,21.80
2023-05-16T11:45:07.222Z,22.00
2023-05-16T11:47:37.606Z,22.00
2023-05-16T11:50:07.916Z,22.10
2023-05-16T11:52:36.614Z,21.70
2023-05-16T11:55:08.428Z,21.80
2023-05-16T11:57:36.991Z,21.50
2023-05-16T12:00:08.157Z,21.80
2023-05-16T12:02:36.875Z,21.50
2023-05-16T12:05:10.236Z,21.40
2023-05-16T12:07:39.143Z,21.50
2023-05-16T12:10:10.602Z,21.80
2023-05-16T12:12:41.454Z,22.00
2023-05-16T12:15:11.220Z,22.30
2023-05-16T12:17:41.853Z,22.50
2023-05-16T12:20:14.439Z,22.50
2023-05-16T12:22:44.876Z,22.60
2023-05-16T12:25:37.592Z,22.80
2023-05-16T12:28:07.912Z,23.50
2023-05-16T12:30:36.285Z,23.80
2023-05-16T12:33:10.225Z,24.10
2023-05-16T12:35:40.511Z,24.80
2023-05-16T12:38:09.703Z,24.80
2023-05-16T12:40:41.052Z,24.90
2023-05-16T12:43:15.525Z,25.10
2023-05-16T12:45:44.582Z,25.20
2023-05-16T12:48:16.281Z,25.70
2023-05-16T12:50:46.657Z,25.90
2023-05-16T12:53:17.207Z,25.70
2023-05-16T12:55:47.053Z,25.70
2023-05-16T12:58:16.640Z,26.10
2023-05-16T13:00:45.037Z,26.10
2023-05-16T13:03:13.502Z,25.80
2023-05-16T13:05:42.384Z,25.80
2023-05-16T13:08:12.365Z,26.30
2023-05-16T13:10:40.754Z,26.70
2023-05-16T13:13:11.014Z,27.90
2023-05-16T13:15:40.900Z,28.50
2023-05-16T13:18:09.522Z,29.00
2023-05-16T13:20:39.027Z,30.10
2023-05-16T13:23:07.442Z,30.00
2023-05-16T13:25:35.949Z,29.40
2023-05-16T13:28:04.874Z,29.50
2023-05-16T13:30:35.041Z,29.70
2023-05-16T13:33:03.701Z,28.30
2023-05-16T13:35:32.087Z,27.20
2023-05-16T13:38:00.825Z,26.30
2023-05-16T13:40:29.530Z,26.10
2023-05-16T13:42:58.097Z,26.40
2023-05-16T13:45:27.671Z,26.20
2023-05-16T13:47:57.744Z,26.70
2023-05-16T13:50:33.351Z,27.10
2023-05-16T13:53:02.276Z,26.60
2023-05-16T13:55:30.802Z,26.80
2023-05-16T13:58:00.128Z,27.30
2023-05-16T14:00:43.329Z,27.30
2023-05-16T14:03:14.848Z,26.20
2023-05-16T14:05:43.397Z,26.30
2023-05-16T14:08:11.719Z,25.50
2023-05-16T14:10:40.135Z,25.30
2023-05-16T14:13:08.453Z,25.40
2023-05-16T14:15:36.951Z,24.90
2023-05-16T14:18:05.781Z,24.50
2023-05-16T14:20:35.926Z,24.10
2023-05-16T14:23:04.300Z,24.10
2023-05-16T14:25:32.965Z,24.10
2023-05-16T14:28:01.379Z,24.00
2023-05-16T14:30:30.079Z,24.70
2023-05-16T14:32:59.378Z,26.10
2023-05-16T14:35:28.006Z,28.20
2023-05-16T14:37:57.943Z,29.70
2023-05-16T14:40:28.644Z,29.80
2023-05-16T14:42:57.115Z,30.20
2023-05-16T14:45:25.653Z,30.10
2023-05-16T14:47:54.128Z,29.60
2023-05-16T14:50:22.694Z,30.30
2023-05-16T14:52:51.234Z,30.90
2023-05-16T14:55:21.816Z,29.70
2023-05-16T14:57:52.512Z,29.00
2023-05-16T15:00:28.115Z,28.60
2023-05-16T15:02:56.959Z,26.80
2023-05-16T15:05:25.740Z,26.40
2023-05-16T15:07:54.175Z,26.60
2023-05-16T15:10:24.162Z,26.00
2023-05-16T15:12:52.532Z,25.50
2023-05-16T15:15:21.026Z,24.80
2023-05-16T15:17:49.518Z,24.30
2023-05-16T15:20:18.732Z,23.90
2023-05-16T15:22:48.493Z,23.50
2023-05-16T15:25:16.830Z,23.20
2023-05-16T15:27:46.542Z,23.20
2023-05-16T15:30:15.569Z,23.40
2023-05-16T15:32:44.689Z,24.50
2023-05-16T15:35:13.663Z,26.60
2023-05-16T15:37:42.343Z,27.80
2023-05-16T15:40:12.532Z,28.70
2023-05-16T15:42:44.381Z,29.40
2023-05-16T15:45:14.463Z,29.30
2023-05-16T15:47:43.331Z,28.70
2023-05-16T15:50:12.666Z,27.60
2023-05-16T15:52:41.163Z,27.60
2023-05-16T15:55:12.088Z,28.10
2023-05-16T15:57:40.757Z,29.30
2023-05-16T16:00:10.275Z,28.90
2023-05-16T16:02:45.466Z,29.10
2023-05-16T16:05:13.941Z,29.80
2023-05-16T16:07:42.322Z,29.60
2023-05-16T16:10:11.880Z,29.30
2023-05-16T16:12:41.259Z,28.70
2023-05-16T16:15:11.921Z,27.60
2023-05-16T16:17:40.406Z,27.20
2023-05-16T16:20:11.564Z,27.00
2023-05-16T16:22:39.946Z,26.90
2023-05-16T16:25:09.039Z,27.30
2023-05-16T16:27:37.435Z,27.90
2023-05-16T16:30:06.787Z,28.30
2023-05-16T16:32:35.288Z,27.90
2023-05-16T16:35:05.480Z,26.90
2023-05-16T16:37:35.939Z,26.10
2023-05-16T16:40:05.124Z,25.40
2023-05-16T16:42:33.472Z,24.80
2023-05-16T16:45:01.863Z,24.70
2023-05-16T16:47:30.286Z,25.10
2023-05-16T16:49:58.712Z,25.70
2023-05-16T16:52:27.108Z,26.10
2023-05-16T16:54:56.838Z,25.90
2023-05-16T16:57:25.245Z,25.00
2023-05-16T16:59:53.671Z,24.40
2023-05-16T17:02:22.412Z,24.30
2023-05-16T17:04:50.850Z,24.30
2023-05-16T17:07:19.215Z,24.80
2023-05-16T17:09:47.654Z,25.40
2023-05-16T17:12:20.370Z,26.00
2023-05-16T17:14:50.246Z,26.40
2023-05-16T17:17:19.299Z,26.50
2023-05-16T17:19:48.367Z,26.50
2023-05-16T17:22:16.755Z,26.20
2023-05-16T17:24:45.479Z,26.00
2023-05-16T17:27:13.895Z,25.30
2023-05-16T17:29:43.700Z,24.60
2023-05-16T17:32:12.170Z,23.90
2023-05-16T17:34:40.830Z,23.40
2023-05-16T17:37:10.557Z,23.10
2023-05-16T17:39:40.322Z,23.00
2023-05-16T17:42:09.336Z,22.70
2023-05-16T17:44:44.569Z,22.40
2023-05-16T17:47:16.633Z,22.30
2023-05-16T17:49:46.204Z,22.10
2023-05-16T17:52:14.772Z,21.90
2023-05-16T17:54:43.630Z,21.90
2023-05-16T17:57:12.371Z,21.90
2023-05-16T17:59:40.716Z,21.80
2023-05-16T18:02:15.255Z,21.70
2023-05-16T18:04:44.678Z,21.50
2023-05-16T18:07:13.349Z,21.40
2023-05-16T18:09:41.756Z,21.30
2023-05-16T18:12:10.700Z,21.30
2023-05-16T18:14:39.335Z,21.30
2023-05-16T18:17:08.520Z,21.20
2023-05-16T18:19:38.405Z,21.20
2023-05-16T18:22:08.733Z,21.20
2023-05-16T18:24:38.045Z,21.20
2023-05-16T18:27:06.751Z,21.10
2023-05-16T18:29:35.452Z,20.70
2023-05-16T18:32:03.916Z,20.60
2023-05-16T18:34:32.467Z,20.60
2023-05-16T18:37:02.214Z,20.60
2023-05-16T18:39:31.864Z,20.40
2023-05-16T18:42:00.562Z,20.30
2023-05-16T18:44:28.950Z,20.30
2023-05-16T18:46:58.875Z,20.30
2023-05-16T18:49:27.644Z,20.20
2023-05-16T18:51:57.192Z,20.00
2023-05-16T18:54:27.117Z,20.00
2023-05-16T18:56:56.216Z,20.10
2023-05-16T18:59:24.590Z,20.00
2023-05-16T19:01:53.119Z,19.80
2023-05-16T19:04:21.643Z,19.80
2023-05-16T19:06:50.705Z,19.80
2023-05-16T19:09:19.635Z,19.90
2023-05-16T19:11:49.516Z,19.80
2023-05-16T19:14:18.267Z,19.80
2023-05-16T19:16:46.629Z,19.80
2023-05-16T19:19:15.190Z,19.60
2023-05-16T19:21:43.667Z,19.50
2023-05-16T19:24:12.758Z,19.30
2023-05-16T19:26:41.261Z,19.20
2023-05-16T19:29:11.159Z,19.20
2023-05-16T19:31:39.540Z,19.20
2023-05-16T19:34:08.433Z,19.20
2023-05-16T19:36:37.367Z,19.10
2023-05-16T19:39:05.905Z,18.90
2023-05-16T19:41:34.266Z,19.00
2023-05-16T19:44:02.724Z,19.00
2023-05-16T19:46:32.418Z,19.10
2023-05-16T19:49:01.018Z,19.00
2023-05-16T19:51:40.873Z,18.90
2023-05-16T19:54:10.628Z,18.60
2023-05-16T19:56:38.999Z,18.50
2023-05-16T19:59:07.401Z,18.40
2023-05-16T20:01:37.182Z,18.60
2023-05-16T20:04:06.506Z,18.60
2023-05-16T20:06:34.909Z,18.40
2023-05-16T20:09:03.443Z,18.40
2023-05-16T20:11:31.887Z,18.40
2023-05-16T20:14:03.528Z,18.40
2023-05-16T20:16:32.330Z,18.50
2023-05-16T20:19:02.083Z,18.30
2023-05-16T20:21:31.047Z,18.20
2023-05-16T20:23:59.707Z,18.10
2023-05-16T20:26:28.068Z,18.10
2023-05-16T20:28:56.370Z,17.90
2023-05-16T20:31:24.861Z,17.90
2023-05-16T20:33:53.407Z,17.80
2023-05-16T20:36:23.308Z,17.80
2023-05-16T20:38:51.852Z,17.70
2023-05-16T20:41:20.389Z,17.70
2023-05-16T20:43:50.651Z,17.70
2023-05-16T20:46:19.051Z,17.80
2023-05-16T20:48:47.394Z,17.80
2023-05-16T20:51:15.792Z,17.80
2023-05-16T20:53:45.498Z,17.80
2023-05-16T20:56:13.882Z,17.70
2023-05-16T20:58:42.327Z,17.70
2023-05-16T21:01:11.049Z,17.60
2023-05-16T21:03:39.393Z,17.60
2023-05-16T21:06:07.991Z,17.60
2023-05-16T21:08:36.516Z,17.70
2023-05-16T21:11:06.286Z,17.70
2023-05-16T21:13:34.610Z,17.70
2023-05-16T21:16:03.101Z,17.70
2023-05-16T21:18:31.622Z,17.80
2023-05-16T21:21:00.028Z,17.70
2023-05-16T21:23:28.574Z,17.40
2023-05-16T21:25:56.959Z,17.30
2023-05-16T21:28:26.849Z,17.30
2023-05-16T21:30:55.757Z,17.50
2023-05-16T21:33:24.259Z,17.40
2023-05-16T21:35:53.349Z,17.40
2023-05-16T21:38:21.797Z,17.40
2023-05-16T21:40:50.205Z,17.40
2023-05-16T21:43:18.537Z,17.40
2023-05-16T21:45:48.252Z,17.30
2023-05-16T21:48:16.703Z,17.40
2023-05-16T21:50:45.135Z,17.10
2023-05-16T21:53:13.515Z,16.90
2023-05-16T21:55:41.858Z,16.80
2023-05-16T21:58:10.336Z,16.70
2023-05-16T22:00:38.777Z,16.90
2023-05-16T22:03:10.942Z,17.20
2023-05-16T22:05:39.474Z,17.30
2023-05-16T22:08:08.670Z,17.30
2023-05-16T22:10:37.050Z,17.20
2023-05-16T22:13:05.451Z,17.20
2023-05-16T22:15:33.820Z,17.20
2023-05-16T22:18:02.360Z,17.30
2023-05-16T22:20:32.147Z,17.30
2023-05-16T22:23:00.638Z,17.30
2023-05-16T22:25:29.351Z,17.20
2023-05-16T22:27:57.976Z,17.10
2023-05-16T22:30:26.317Z,17.20
2023-05-16T22:32:57.133Z,17.10
2023-05-16T22:35:28.295Z,17.10
2023-05-16T22:37:58.207Z,17.10
2023-05-16T22:40:26.876Z,16.90
2023-05-16T22:42:55.211Z,16.80
2023-05-16T22:45:23.674Z,16.90
2023-05-16T22:47:52.047Z,16.90
2023-05-16T22:50:20.619Z,16.80
2023-05-16T22:52:49.360Z,16.80
2023-05-16T22:55:19.232Z,16.70
2023-05-16T22:57:47.627Z,16.70
2023-05-16T23:00:16.629Z,16.50
2023-05-16T23:02:45.153Z,16.40
2023-05-16T23:05:13.825Z,16.20
2023-05-16T23:07:42.281Z,16.10
2023-05-16T23:10:11.040Z,16.00
2023-05-16T23:12:40.848Z,16.10
2023-05-16T23:15:10.506Z,16.10
2023-05-16T23:17:39.367Z,16.30
2023-05-16T23:20:09.104Z,16.30
2023-05-16T23:22:37.478Z,16.40
2023-05-16T23:25:06.489Z,16.40
2023-05-16T23:27:34.847Z,16.40
2023-05-16T23:30:04.885Z,16.30
2023-05-16T23:32:33.370Z,16.20
2023-05-16T23:35:01.773Z,16.10
2023-05-16T23:37:31.048Z,16.00
2023-05-16T23:39:59.474Z,15.90
2023-05-16T23:42:27.885Z,16.00
2023-05-16T23:44:56.287Z,15.90
2023-05-16T23:47:27.077Z,16.10
2023-05-16T23:49:55.569Z,16.00
2023-05-16T23:52:23.953Z,16.00
2023-05-16T23:54:52.278Z,16.10
2023-05-16T23:57:20.810Z,16.20
2023-05-16T23:59:49.128Z,16.20
